Time;durP1;ratioP1;P1;durP2;ratioP2;P2;SDS_P1;SDS_P2;PMS_P1;PMS_P2;Temp;Humidity;BMP_temperature;BMP_pressure;BME280_temperature;BME280_humidity;BME280_pressure;Samples;Min_cycle;Max_cycle;Signal;HPM_P1;HPM_P2
2022/12/07 00:01:08;;;;;;;9.27;1.10;;;4.00;99.90;;;;;;5130772;27;20095;-46
2022/12/07 00:03:35;;;;;;;5.72;0.90;;;4.00;99.90;;;;;;5130856;27;20039;-47
2022/12/07 00:06:02;;;;;;;6.72;1.33;;;4.10;99.90;;;;;;5131044;27;20047;-48
2022/12/07 00:08:28;;;;;;;7.20;1.02;;;3.50;99.90;;;;;;5130957;27;20043;-46
2022/12/07 00:10:53;;;;;;;6.50;1.25;;;4.10;99.90;;;;;;5130589;27;20390;-46
2022/12/07 00:13:19;;;;;;;11.07;1.23;;;3.90;99.90;;;;;;5130799;27;20035;-44
2022/12/07 00:15:45;;;;;;;9.00;1.23;;;3.50;99.90;;;;;;5130307;27;20054;-45
2022/12/07 00:18:11;;;;;;;10.57;1.08;;;4.00;99.90;;;;;;5129497;27;20035;-46
2022/12/07 00:20:36;;;;;;;3.97;0.90;;;3.50;99.90;;;;;;5130702;27;20382;-46
2022/12/07 00:23:02;;;;;;;5.93;0.90;;;3.80;99.90;;;;;;5130430;27;20091;-45
2022/12/07 00:25:29;;;;;;;11.02;1.20;;;3.80;99.90;;;;;;5130653;27;20039;-48
2022/12/07 00:27:56;;;;;;;11.18;0.90;;;3.90;99.90;;;;;;5130294;27;20043;-49
2022/12/07 00:30:23;;;;;;;7.85;0.98;;;3.90;99.90;;;;;;5130101;27;20039;-47
2022/12/07 00:32:49;;;;;;;5.63;1.10;;;3.70;99.90;;;;;;5130439;28;20035;-47
2022/12/07 00:35:14;;;;;;;11.45;1.10;;;3.60;99.90;;;;;;5130465;28;20038;-49
2022/12/07 00:37:40;;;;;;;8.52;1.27;;;3.80;99.90;;;;;;5130471;28;20394;-50
2022/12/07 00:40:06;;;;;;;13.13;1.00;;;4.10;99.90;;;;;;5130553;28;20084;-47
2022/12/07 00:42:32;;;;;;;10.05;1.15;;;3.70;99.90;;;;;;5130476;27;21378;-49
2022/12/07 00:44:58;;;;;;;8.52;1.17;;;4.10;99.90;;;;;;5134113;27;20163;-48
2022/12/07 00:47:23;;;;;;;8.50;0.88;;;4.00;99.90;;;;;;5134418;27;20039;-46
2022/12/07 00:49:49;;;;;;;9.70;1.25;;;4.00;99.90;;;;;;5134315;27;20043;-48
2022/12/07 00:52:15;;;;;;;11.43;1.20;;;3.80;99.90;;;;;;5134364;27;20042;-48
2022/12/07 00:54:40;;;;;;;5.90;1.27;;;3.80;99.90;;;;;;5134045;27;20073;-47
2022/12/07 00:57:06;;;;;;;9.77;1.00;;;4.00;99.90;;;;;;5134356;27;20371;-49
2022/12/07 00:59:32;;;;;;;8.68;1.00;;;4.00;99.90;;;;;;5115680;27;20081;-49
2022/12/07 01:01:58;;;;;;;9.23;0.77;;;4.00;99.90;;;;;;5133954;27;20058;-47
2022/12/07 01:04:24;;;;;;;11.32;1.38;;;3.90;99.90;;;;;;5134392;27;20047;-48
2022/12/07 01:06:49;;;;;;;6.22;0.98;;;3.80;99.90;;;;;;5132629;27;20038;-48
2022/12/07 01:09:15;;;;;;;5.13;0.95;;;3.50;99.90;;;;;;5134242;27;20039;-50
2022/12/07 01:11:41;;;;;;;7.75;1.05;;;3.60;99.90;;;;;;5134021;27;20498;-46
2022/12/07 01:14:06;;;;;;;5.72;0.98;;;3.60;99.90;;;;;;5133973;27;20024;-45
2022/12/07 01:16:33;;;;;;;11.13;1.40;;;3.80;99.90;;;;;;5134008;27;20039;-45
2022/12/07 01:19:00;;;;;;;10.35;1.15;;;3.50;99.90;;;;;;5133764;27;20035;-45
2022/12/07 01:21:28;;;;;;;8.55;1.02;;;3.70;99.90;;;;;;5133128;27;20580;-46
2022/12/07 01:23:54;;;;;;;10.65;1.40;;;3.30;99.90;;;;;;5133721;27;20131;-47
2022/12/07 01:26:24;;;;;;;7.03;0.80;;;3.70;99.90;;;;;;5133365;27;20117;-47
2022/12/07 01:28:50;;;;;;;9.80;1.52;;;3.40;99.90;;;;;;5133670;27;20039;-44
2022/12/07 01:31:19;;;;;;;10.30;1.33;;;3.50;99.90;;;;;;5133586;27;20028;-48
2022/12/07 01:33:47;;;;;;;5.85;0.95;;;3.50;99.90;;;;;;5132837;27;20042;-48
2022/12/07 01:36:20;;;;;;;7.28;1.02;;;3.50;99.90;;;;;;5133726;27;20066;-47
2022/12/07 01:38:47;;;;;;;5.93;1.05;;;3.50;99.90;;;;;;5133526;27;20038;-51
2022/12/07 01:41:13;;;;;;;9.65;1.60;;;3.40;99.90;;;;;;5133452;27;20035;-47
2022/12/07 01:44:17;;;;;;;8.05;1.33;;;3.30;99.90;;;;;;5133358;27;20043;-49
2022/12/07 01:46:51;;;;;;;10.13;1.00;;;3.30;99.90;;;;;;5133337;27;20122;-46
2022/12/07 01:49:26;;;;;;;11.13;1.45;;;3.20;99.90;;;;;;5131943;27;20405;-46
2022/12/07 01:51:57;;;;;;;9.90;1.48;;;3.30;99.90;;;;;;5133427;27;20046;-47
2022/12/07 01:54:22;;;;;;;9.13;0.95;;;3.50;99.90;;;;;;5133103;27;20039;-46
2022/12/07 01:56:52;;;;;;;7.55;1.02;;;3.40;99.90;;;;;;5133024;27;20431;-50
2022/12/07 01:59:21;;;;;;;6.07;1.00;;;3.30;99.90;;;;;;5133079;27;20035;-46
2022/12/07 02:01:47;;;;;;;7.22;1.15;;;3.30;99.90;;;;;;5131803;27;20401;-47
2022/12/07 02:04:13;;;;;;;11.25;1.23;;;3.30;99.90;;;;;;5133190;27;20035;-49
2022/12/07 02:06:41;;;;;;;8.68;1.30;;;3.10;99.90;;;;;;5133223;27;20038;-46
2022/12/07 02:09:07;;;;;;;7.38;0.88;;;3.20;99.90;;;;;;5132946;27;20501;-50
2022/12/07 02:11:33;;;;;;;5.32;0.90;;;3.00;99.90;;;;;;5132804;27;20394;-47
2022/12/07 02:13:59;;;;;;;8.32;1.05;;;3.10;99.90;;;;;;5132917;27;20035;-48
2022/12/07 02:17:03;;;;;;;6.68;0.70;;;3.20;99.90;;;;;;5131885;27;20046;-43
2022/12/07 02:19:48;;;;;;;9.30;1.08;;;2.90;99.90;;;;;;5132295;27;20035;-45
2022/12/07 02:22:45;;;;;;;7.15;0.70;;;2.90;99.90;;;;;;5132050;27;20049;-42
2022/12/07 02:25:47;;;;;;;5.30;1.00;;;3.10;99.90;;;;;;5131386;27;20565;-49
2022/12/07 02:28:26;;;;;;;8.15;1.17;;;3.20;99.90;;;;;;5132406;27;20961;-47
2022/12/07 02:30:55;;;;;;;9.40;1.05;;;3.30;99.90;;;;;;5131418;27;20035;-48
2022/12/07 02:33:33;;;;;;;5.57;0.77;;;3.00;99.90;;;;;;5132621;27;20772;-49
2022/12/07 02:36:02;;;;;;;7.70;0.80;;;3.30;99.90;;;;;;5097077;27;20099;-47
2022/12/07 02:38:39;;;;;;;7.88;1.20;;;3.30;99.90;;;;;;5132774;27;20039;-49
2022/12/07 02:41:33;;;;;;;8.05;0.75;;;3.60;99.90;;;;;;5113971;27;20031;-48
2022/12/07 02:44:02;;;;;;;5.68;0.77;;;3.40;99.90;;;;;;5125660;27;20043;-43
2022/12/07 02:46:33;;;;;;;5.47;0.60;;;3.50;99.90;;;;;;5132086;27;20130;-46
2022/12/07 02:49:00;;;;;;;9.90;1.00;;;3.50;99.90;;;;;;5132727;27;20046;-46
2022/12/07 02:51:29;;;;;;;4.75;0.77;;;3.50;99.90;;;;;;5132810;27;20174;-47
2022/12/07 02:53:55;;;;;;;11.45;1.08;;;3.60;99.90;;;;;;5112764;27;20505;-43
2022/12/07 02:56:44;;;;;;;5.20;0.80;;;3.50;99.90;;;;;;5132083;27;20039;-46
2022/12/07 02:59:31;;;;;;;7.13;1.00;;;3.30;99.90;;;;;;5112115;27;20078;-45
2022/12/07 03:02:03;;;;;;;10.52;0.80;;;3.60;99.90;;;;;;5131671;27;20047;-45
2022/12/07 03:04:50;;;;;;;7.18;0.90;;;3.50;99.90;;;;;;5131201;27;20038;-46
2022/12/07 03:07:42;;;;;;;6.03;0.88;;;3.40;99.90;;;;;;5131252;27;20082;-45
2022/12/07 03:10:36;;;;;;;3.95;0.80;;;3.20;99.90;;;;;;5130182;27;20034;-46
2022/12/07 03:13:04;;;;;;;6.80;0.77;;;3.30;99.90;;;;;;5131653;27;20027;-44
2022/12/07 03:16:16;;;;;;;7.32;0.80;;;3.50;99.90;;;;;;5131529;27;20534;-45
2022/12/07 03:18:56;;;;;;;4.82;0.95;;;3.20;99.90;;;;;;5095711;27;20039;-45
2022/12/07 03:21:33;;;;;;;6.50;1.02;;;3.20;99.90;;;;;;5131052;27;20086;-45
2022/12/07 03:24:04;;;;;;;4.43;0.82;;;3.20;99.90;;;;;;5129274;27;20241;-46
2022/12/07 03:26:36;;;;;;;6.13;0.85;;;3.10;99.90;;;;;;5131563;27;20513;-43
2022/12/07 03:29:10;;;;;;;8.35;0.77;;;3.30;99.90;;;;;;5131486;27;20043;-49
2022/12/07 03:31:45;;;;;;;4.75;0.60;;;3.40;99.90;;;;;;5130525;27;20125;-48
2022/12/07 03:34:20;;;;;;;6.35;0.70;;;3.10;99.90;;;;;;5131420;27;20043;-46
2022/12/07 03:37:00;;;;;;;6.97;0.68;;;3.50;99.90;;;;;;5131128;27;20039;-46
2022/12/07 03:39:32;;;;;;;7.60;0.75;;;3.10;99.90;;;;;;5131418;27;20409;-46
2022/12/07 03:42:00;;;;;;;4.55;0.70;;;3.40;99.90;;;;;;5131203;27;20042;-46
2022/12/07 03:44:26;;;;;;;8.20;0.88;;;3.30;99.90;;;;;;5130939;27;20521;-45
2022/12/07 03:47:05;;;;;;;14.15;0.65;;;3.20;99.90;;;;;;5129631;27;20054;-48
2022/12/07 03:49:41;;;;;;;6.18;0.90;;;3.30;99.90;;;;;;5130630;27;20067;-47
2022/12/07 03:52:21;;;;;;;6.53;0.73;;;3.00;99.90;;;;;;5131278;27;20031;-45
2022/12/07 03:55:01;;;;;;;7.68;0.90;;;3.10;99.90;;;;;;5129827;27;20497;-46
2022/12/07 03:57:29;;;;;;;5.28;0.80;;;3.30;99.90;;;;;;5130989;27;20382;-46
2022/12/07 03:59:57;;;;;;;8.00;0.90;;;3.10;99.90;;;;;;5129398;27;20039;-45
2022/12/07 04:02:24;;;;;;;8.05;0.77;;;3.40;99.90;;;;;;5130254;27;20031;-48
2022/12/07 04:04:50;;;;;;;8.35;0.95;;;3.20;99.90;;;;;;5131565;27;20398;-46
2022/12/07 04:07:16;;;;;;;10.35;0.80;;;3.20;99.90;;;;;;5112234;27;20039;-47
2022/12/07 04:09:42;;;;;;;6.95;0.73;;;3.40;99.90;;;;;;5130737;27;20451;-48
2022/12/07 04:12:07;;;;;;;10.77;1.00;;;3.20;99.90;;;;;;5130873;27;20070;-46
2022/12/07 04:14:33;;;;;;;7.03;0.80;;;3.10;99.90;;;;;;5130299;27;20470;-47
2022/12/07 04:16:59;;;;;;;7.90;0.88;;;3.20;99.90;;;;;;5130239;27;20394;-45
2022/12/07 04:19:30;;;;;;;4.30;0.85;;;3.20;99.90;;;;;;5129129;27;20027;-48
2022/12/07 04:21:58;;;;;;;8.50;1.35;;;3.30;99.90;;;;;;5130717;27;20126;-48
2022/12/07 04:24:24;;;;;;;3.40;0.63;;;3.00;99.90;;;;;;5111901;27;20502;-47
2022/12/07 04:26:50;;;;;;;7.43;0.88;;;3.50;99.90;;;;;;5112109;27;20341;-45
2022/12/07 04:29:17;;;;;;;8.80;0.85;;;3.10;99.90;;;;;;5130807;27;20130;-45
2022/12/07 04:31:43;;;;;;;5.70;0.98;;;2.80;99.90;;;;;;5130706;27;20027;-46
2022/12/07 04:34:09;;;;;;;8.80;1.42;;;3.00;99.90;;;;;;5112159;28;20394;-45
2022/12/07 04:36:35;;;;;;;6.60;0.68;;;2.90;99.90;;;;;;5130494;28;21333;-45
2022/12/07 04:39:03;;;;;;;4.78;0.90;;;3.00;99.90;;;;;;5130358;28;20420;-44
2022/12/07 04:41:29;;;;;;;9.18;1.10;;;1.60;99.90;;;;;;5130117;28;20031;-45
2022/12/07 04:44:01;;;;;;;8.77;1.05;;;3.10;99.90;;;;;;5129951;28;20055;-46
2022/12/07 04:46:28;;;;;;;11.23;0.80;;;3.10;99.90;;;;;;5130079;28;20129;-47
2022/12/07 04:48:54;;;;;;;4.85;0.68;;;3.30;99.90;;;;;;5111929;28;20126;-44
2022/12/07 04:51:23;;;;;;;5.57;0.70;;;3.00;99.90;;;;;;5128921;28;20034;-45
2022/12/07 04:53:49;;;;;;;8.07;1.08;;;2.80;99.90;;;;;;5130239;28;20500;-44
2022/12/07 04:56:16;;;;;;;6.85;0.80;;;2.80;99.90;;;;;;5130624;28;20051;-46
2022/12/07 04:58:43;;;;;;;6.47;0.60;;;3.10;99.90;;;;;;5130500;28;20400;-47
2022/12/07 05:01:09;;;;;;;6.32;1.00;;;2.80;99.90;;;;;;5129991;28;20082;-47
2022/12/07 05:03:36;;;;;;;4.68;0.70;;;3.10;99.90;;;;;;5130245;28;20059;-46
2022/12/07 05:06:02;;;;;;;7.45;1.48;;;3.00;99.90;;;;;;5110428;28;20034;-45
2022/12/07 05:08:27;;;;;;;10.13;1.25;;;3.00;99.90;;;;;;5128959;28;20031;-45
2022/12/07 05:10:53;;;;;;;7.68;1.05;;;3.30;99.90;;;;;;5129790;28;20042;-49
2022/12/07 05:13:18;;;;;;;7.18;1.00;;;3.10;99.90;;;;;;5130076;28;20035;-49
2022/12/07 05:15:44;;;;;;;7.78;1.00;;;3.10;99.90;;;;;;5129740;28;20035;-46
2022/12/07 05:18:14;;;;;;;10.18;1.20;;;3.20;99.90;;;;;;5130689;28;20471;-45
2022/12/07 05:20:41;;;;;;;6.45;0.95;;;3.00;99.90;;;;;;5130892;28;20054;-44
2022/12/07 05:23:07;;;;;;;5.95;0.82;;;3.00;99.90;;;;;;5129487;28;20039;-49
2022/12/07 05:25:33;;;;;;;10.10;0.90;;;3.20;99.90;;;;;;5129968;28;20554;-44
2022/12/07 05:27:59;;;;;;;12.00;1.20;;;3.10;99.90;;;;;;5130087;28;20493;-50
2022/12/07 05:30:26;;;;;;;9.68;1.13;;;3.00;99.90;;;;;;5112814;27;20533;-46
2022/12/07 05:32:51;;;;;;;5.00;1.00;;;3.20;99.90;;;;;;5115284;27;20070;-48
2022/12/07 05:35:18;;;;;;;9.82;0.88;;;2.80;99.90;;;;;;5133218;27;20070;-46
2022/12/07 05:37:44;;;;;;;8.68;0.90;;;3.10;99.90;;;;;;5133597;27;20065;-45
2022/12/07 05:40:11;;;;;;;9.60;1.10;;;3.10;99.90;;;;;;5133577;27;20042;-47
2022/12/07 05:42:37;;;;;;;8.68;1.10;;;2.80;99.90;;;;;;5133271;27;20122;-49
2022/12/07 05:45:03;;;;;;;11.80;0.90;;;3.00;99.90;;;;;;5133052;27;20054;-45
2022/12/07 05:47:29;;;;;;;8.65;0.93;;;2.80;99.90;;;;;;5132331;27;20050;-48
2022/12/07 05:49:55;;;;;;;4.90;0.85;;;2.90;99.90;;;;;;5133357;27;20031;-44
2022/12/07 05:52:20;;;;;;;9.73;1.00;;;4.20;99.90;;;;;;5114680;27;20035;-46
2022/12/07 05:54:46;;;;;;;8.68;1.67;;;2.90;99.90;;;;;;5133947;27;20047;-46
2022/12/07 05:57:12;;;;;;;5.72;0.70;;;2.80;99.90;;;;;;5133921;27;20034;-47
2022/12/07 05:59:37;;;;;;;7.32;0.70;;;2.80;99.90;;;;;;5112985;27;20042;-47
2022/12/07 06:02:09;;;;;;;13.25;1.10;;;2.80;99.90;;;;;;5131306;27;20118;-49
2022/12/07 06:04:44;;;;;;;14.32;1.67;;;2.90;99.90;;;;;;5114415;27;20099;-48
2022/12/07 06:07:11;;;;;;;9.07;1.40;;;3.10;99.90;;;;;;5133066;27;20095;-46
2022/12/07 06:09:37;;;;;;;7.55;0.85;;;3.40;99.90;;;;;;5131775;27;20351;-45
2022/12/07 06:14:48;;;;;;;9.73;0.93;;;3.30;99.90;;;;;;5132883;27;20077;-46
2022/12/07 06:17:14;;;;;;;6.43;0.85;;;3.40;99.90;;;;;;5132013;27;20035;-47
2022/12/07 06:19:40;;;;;;;6.63;1.00;;;3.30;99.90;;;;;;5132879;27;20023;-48
2022/12/07 06:22:07;;;;;;;8.48;1.15;;;3.40;99.90;;;;;;5114634;27;20039;-44
2022/12/07 06:24:33;;;;;;;8.70;0.90;;;3.20;99.90;;;;;;5114774;27;20035;-49
2022/12/07 06:26:59;;;;;;;6.88;0.90;;;3.40;99.90;;;;;;5132652;27;20448;-49
2022/12/07 06:29:25;;;;;;;7.43;1.00;;;3.30;99.90;;;;;;5130989;27;20030;-47
2022/12/07 06:31:50;;;;;;;12.30;1.13;;;3.30;99.90;;;;;;5130451;27;20035;-45
2022/12/07 06:34:19;;;;;;;11.68;0.98;;;3.20;99.90;;;;;;5133010;27;20035;-49
2022/12/07 06:36:44;;;;;;;8.77;0.88;;;3.20;99.90;;;;;;5133141;27;20033;-46
2022/12/07 06:39:11;;;;;;;4.32;0.70;;;3.30;99.90;;;;;;5114042;27;20039;-46
2022/12/07 06:41:38;;;;;;;10.45;0.90;;;3.30;99.90;;;;;;5113845;27;20028;-46
2022/12/07 06:44:05;;;;;;;6.90;0.73;;;3.30;99.90;;;;;;5132274;27;20055;-48
2022/12/07 06:46:31;;;;;;;4.95;0.77;;;3.20;99.90;;;;;;5132547;27;20042;-48
2022/12/07 06:48:57;;;;;;;4.35;0.63;;;3.20;99.90;;;;;;5096820;27;20402;-47
2022/12/07 06:51:22;;;;;;;3.38;0.65;;;2.90;99.90;;;;;;5114389;27;20074;-45
2022/12/07 06:53:48;;;;;;;2.67;0.60;;;2.90;99.90;;;;;;5132581;27;20031;-47
2022/12/07 06:56:14;;;;;;;6.15;1.13;;;2.60;99.90;;;;;;5131507;27;20126;-47
2022/12/07 06:58:40;;;;;;;6.63;1.05;;;2.70;99.90;;;;;;5132104;27;20050;-46
2022/12/07 07:01:14;;;;;;;4.95;0.90;;;2.50;99.90;;;;;;5131711;27;20043;-50
2022/12/07 07:03:40;;;;;;;6.07;0.75;;;2.50;99.90;;;;;;5131853;27;20091;-47
2022/12/07 07:06:07;;;;;;;9.15;1.23;;;2.50;99.90;;;;;;5113377;27;20221;-50
2022/12/07 07:08:33;;;;;;;7.90;0.70;;;2.70;99.90;;;;;;5132023;27;21895;-46
2022/12/07 07:10:59;;;;;;;10.38;1.10;;;2.40;99.90;;;;;;5131802;27;20039;-47
2022/12/07 07:13:25;;;;;;;6.53;0.90;;;2.40;99.90;;;;;;5113531;27;20046;-45
2022/12/07 07:15:51;;;;;;;7.55;0.70;;;2.40;99.90;;;;;;5113484;27;20052;-46
2022/12/07 07:18:17;;;;;;;7.43;0.80;;;2.40;99.90;;;;;;5113327;27;20119;-44
2022/12/07 07:20:42;;;;;;;5.88;1.15;;;2.20;99.90;;;;;;5131603;27;20034;-45
2022/12/07 07:23:08;;;;;;;7.15;1.20;;;2.20;99.90;;;;;;5131298;27;20397;-46
2022/12/07 07:25:34;;;;;;;8.75;0.95;;;2.20;99.90;;;;;;5131314;27;20031;-45
2022/12/07 07:28:00;;;;;;;7.55;1.15;;;2.10;99.90;;;;;;5131375;27;20035;-51
2022/12/07 07:30:25;;;;;;;7.25;0.77;;;2.30;99.90;;;;;;5132104;27;20100;-45
2022/12/07 07:32:51;;;;;;;9.40;0.90;;;2.10;99.90;;;;;;5131830;27;20039;-46
2022/12/07 07:35:17;;;;;;;4.30;0.88;;;2.40;99.90;;;;;;5130315;27;20450;-44
2022/12/07 07:37:43;;;;;;;10.70;1.10;;;2.30;99.90;;;;;;5131418;27;20893;-45
2022/12/07 07:40:09;;;;;;;9.70;1.00;;;2.50;99.90;;;;;;5130975;27;20091;-46
2022/12/07 07:42:35;;;;;;;9.43;0.80;;;2.00;99.90;;;;;;5131125;27;20027;-46
2022/12/07 07:45:01;;;;;;;8.27;0.95;;;2.40;99.90;;;;;;5112355;27;20451;-48
2022/12/07 07:47:28;;;;;;;5.13;1.23;;;2.30;99.90;;;;;;5131285;27;20050;-45
2022/12/07 07:49:54;;;;;;;7.65;1.08;;;2.40;99.90;;;;;;5110934;27;20123;-44
2022/12/07 07:52:20;;;;;;;12.02;1.40;;;2.20;99.90;;;;;;5130605;27;20043;-46
2022/12/07 07:54:45;;;;;;;6.93;0.80;;;2.40;99.90;;;;;;5112396;27;20394;-47
2022/12/07 07:57:11;;;;;;;6.22;0.93;;;2.10;99.90;;;;;;5130644;27;20070;-47
2022/12/07 07:59:37;;;;;;;8.35;1.20;;;2.10;99.90;;;;;;5130463;27;20102;-46
2022/12/07 08:02:02;;;;;;;4.95;1.13;;;2.30;99.90;;;;;;5129960;27;20042;-47
2022/12/07 08:04:28;;;;;;;7.75;0.90;;;2.50;99.90;;;;;;5130925;27;20027;-46
2022/12/07 08:06:54;;;;;;;12.77;1.00;;;2.30;99.90;;;;;;5130910;27;20482;-47
2022/12/07 08:09:19;;;;;;;9.07;0.80;;;2.50;99.90;;;;;;5130896;27;20247;-47
2022/12/07 08:11:45;;;;;;;11.25;1.30;;;2.60;99.90;;;;;;5130550;27;20050;-45
2022/12/07 08:14:11;;;;;;;12.15;0.88;;;2.30;99.90;;;;;;5130429;27;20490;-44
2022/12/07 08:16:37;;;;;;;9.52;0.95;;;2.60;99.90;;;;;;5127127;27;20124;-47
2022/12/07 08:19:05;;;;;;;6.93;0.88;;;2.60;99.90;;;;;;5128561;27;20031;-48
2022/12/07 08:21:30;;;;;;;9.77;1.10;;;2.60;99.90;;;;;;5125618;27;20091;-47
2022/12/07 08:23:57;;;;;;;6.35;1.10;;;2.40;99.90;;;;;;5126710;27;20440;-47
2022/12/07 08:26:23;;;;;;;4.63;0.60;;;2.30;99.90;;;;;;5123731;27;20042;-48
2022/12/07 08:28:48;;;;;;;9.95;1.25;;;2.60;99.90;;;;;;5124833;27;20035;-46
2022/12/07 08:31:17;;;;;;;8.60;1.35;;;2.60;99.90;;;;;;5125137;28;20123;-47
2022/12/07 08:33:46;;;;;;;6.30;1.23;;;2.90;99.90;;;;;;5127644;27;20718;-46
2022/12/07 08:36:13;;;;;;;5.88;0.90;;;3.20;99.90;;;;;;5124094;28;20401;-50
2022/12/07 08:38:40;;;;;;;9.20;1.05;;;2.90;99.90;;;;;;5125574;28;20110;-46
2022/12/07 08:41:07;;;;;;;5.82;0.90;;;2.70;99.90;;;;;;5121500;28;20039;-48
2022/12/07 08:43:34;;;;;;;8.00;1.13;;;2.70;99.90;;;;;;5103260;28;20494;-46
2022/12/07 08:46:23;;;;;;;9.80;1.55;;;3.00;99.90;;;;;;5126062;28;20043;-47
2022/12/07 08:49:06;;;;;;;8.45;0.80;;;2.90;99.90;;;;;;5121828;28;20050;-44
2022/12/07 08:51:33;;;;;;;8.15;0.85;;;3.00;99.90;;;;;;5129144;28;20474;-44
2022/12/07 08:54:02;;;;;;;6.10;0.90;;;3.00;99.90;;;;;;5125584;28;20039;-46
2022/12/07 08:56:28;;;;;;;9.38;1.10;;;3.10;99.90;;;;;;5128929;28;20035;-46
2022/12/07 08:58:54;;;;;;;8.52;1.00;;;2.80;99.90;;;;;;5125833;28;20466;-47
2022/12/07 09:01:20;;;;;;;7.78;1.15;;;2.80;99.90;;;;;;5119713;28;20039;-44
2022/12/07 09:03:45;;;;;;;12.93;1.27;;;3.10;99.90;;;;;;5100211;27;20042;-46
2022/12/07 09:06:11;;;;;;;6.05;0.80;;;2.90;99.90;;;;;;5124770;27;20035;-47
2022/12/07 09:08:45;;;;;;;6.45;1.02;;;3.00;99.90;;;;;;5124973;27;20054;-44
2022/12/07 09:11:11;;;;;;;12.23;1.08;;;3.40;99.90;;;;;;5124092;27;20160;-48
2022/12/07 09:13:36;;;;;;;11.15;1.10;;;3.00;99.90;;;;;;5122770;27;20165;-47
2022/12/07 09:16:02;;;;;;;9.25;1.00;;;3.10;99.90;;;;;;5124480;27;20039;-47
2022/12/07 09:18:28;;;;;;;12.55;1.17;;;3.40;99.90;;;;;;5125153;27;20051;-48
2022/12/07 09:20:54;;;;;;;9.77;0.95;;;3.40;99.90;;;;;;5105515;27;20098;-48
2022/12/07 09:23:20;;;;;;;6.05;0.90;;;3.30;99.90;;;;;;5103268;27;20491;-46
2022/12/07 09:25:45;;;;;;;10.85;1.48;;;3.40;99.90;;;;;;5122640;27;20042;-46
2022/12/07 09:28:11;;;;;;;9.48;1.10;;;4.20;99.90;;;;;;5105546;27;20056;-46
2022/12/07 09:30:36;;;;;;;8.32;1.20;;;3.90;99.90;;;;;;5122633;27;20039;-48
2022/12/07 09:33:02;;;;;;;7.45;1.15;;;3.90;99.90;;;;;;5106157;27;20114;-47
2022/12/07 09:35:28;;;;;;;9.13;1.33;;;3.90;99.90;;;;;;5121264;27;20046;-48
2022/12/07 09:37:54;;;;;;;9.13;1.42;;;4.10;99.90;;;;;;5125170;27;20062;-45
2022/12/07 09:40:21;;;;;;;9.48;1.23;;;4.20;99.90;;;;;;5125425;27;20031;-45
2022/12/07 09:42:51;;;;;;;8.10;1.17;;;4.20;99.90;;;;;;5123859;27;20194;-45
2022/12/07 09:45:47;;;;;;;5.78;1.10;;;4.40;99.90;;;;;;5123024;27;20082;-47
2022/12/07 09:48:22;;;;;;;8.75;1.70;;;4.60;99.90;;;;;;5103580;27;20054;-47
2022/12/07 09:50:50;;;;;;;3.80;1.00;;;4.70;99.90;;;;;;5122070;27;20039;-45
2022/12/07 09:53:38;;;;;;;6.93;1.30;;;4.80;99.90;;;;;;5123249;27;20043;-46
2022/12/07 09:56:05;;;;;;;8.70;1.35;;;4.70;99.90;;;;;;5122284;27;20039;-49
2022/12/07 09:58:32;;;;;;;9.80;1.35;;;4.80;99.90;;;;;;5121137;27;20027;-46
2022/12/07 10:01:19;;;;;;;5.07;1.05;;;4.80;99.90;;;;;;5121922;27;20043;-48
2022/12/07 10:03:51;;;;;;;5.88;1.05;;;4.90;99.90;;;;;;5122774;27;20414;-48
2022/12/07 10:06:17;;;;;;;9.10;1.27;;;5.00;99.90;;;;;;5121476;27;20096;-49
2022/12/07 10:08:43;;;;;;;6.78;1.10;;;5.10;99.90;;;;;;5120595;27;20379;-46
2022/12/07 10:11:10;;;;;;;8.30;1.35;;;5.10;99.90;;;;;;5102565;27;20034;-49
2022/12/07 10:13:40;;;;;;;5.20;1.00;;;5.10;99.90;;;;;;5120756;27;20474;-45
2022/12/07 10:16:27;;;;;;;6.03;1.15;;;5.30;99.90;;;;;;5120369;27;20035;-48
2022/12/07 10:18:54;;;;;;;12.20;1.38;;;4.70;99.90;;;;;;5119567;27;20051;-50
2022/12/07 10:21:26;;;;;;;11.20;1.50;;;5.80;99.90;;;;;;5102195;27;20068;-46
2022/12/07 10:24:16;;;;;;;7.28;1.17;;;6.00;99.90;;;;;;5122330;27;20031;-48
2022/12/07 10:26:48;;;;;;;10.10;1.60;;;6.20;99.90;;;;;;5126853;27;20139;-49
2022/12/07 10:29:17;;;;;;;8.02;1.50;;;6.50;99.90;;;;;;5131451;27;20043;-47
2022/12/07 10:31:44;;;;;;;12.43;1.33;;;6.80;99.90;;;;;;5129833;27;20031;-48
2022/12/07 10:34:35;;;;;;;6.97;1.23;;;6.90;99.90;;;;;;5129413;27;20035;-48
2022/12/07 10:37:13;;;;;;;10.52;1.30;;;7.10;99.90;;;;;;5113719;27;20054;-49
2022/12/07 10:39:44;;;;;;;5.88;1.52;;;7.30;99.90;;;;;;5132197;27;20031;-48
2022/12/07 10:42:17;;;;;;;9.93;1.90;;;7.30;99.90;;;;;;5131577;27;20382;-49
2022/12/07 10:44:44;;;;;;;8.35;1.58;;;7.80;99.90;;;;;;5130639;27;20418;-48
2022/12/07 10:47:33;;;;;;;7.50;1.60;;;7.70;99.90;;;;;;5132082;27;20066;-45
2022/12/07 10:50:20;;;;;;;10.15;1.30;;;7.60;99.90;;;;;;5132513;27;20483;-47
2022/12/07 10:52:55;;;;;;;7.50;1.23;;;7.40;99.90;;;;;;5131690;27;20546;-46
2022/12/07 10:55:32;;;;;;;8.20;1.60;;;7.30;99.90;;;;;;5113389;27;20045;-45
2022/12/07 10:57:58;;;;;;;8.20;1.40;;;7.30;99.90;;;;;;5131050;27;20054;-50
2022/12/07 11:00:26;;;;;;;9.63;1.25;;;7.10;99.90;;;;;;5132016;27;20042;-49
2022/12/07 11:03:28;;;;;;;8.80;1.27;;;7.10;99.90;;;;;;5113213;27;20136;-47
2022/12/07 11:06:01;;;;;;;8.07;1.23;;;6.60;99.90;;;;;;5011977;28;20045;-46
2022/12/07 11:08:51;;;;;;;10.35;1.58;;;6.50;99.90;;;;;;5115449;27;20054;-47
2022/12/07 11:11:29;;;;;;;9.20;1.42;;;6.30;99.90;;;;;;5131876;27;20027;-49
2022/12/07 11:14:03;;;;;;;7.82;1.20;;;6.10;99.90;;;;;;5132014;27;20045;-47
2022/12/07 11:16:55;;;;;;;8.68;1.65;;;6.10;99.90;;;;;;5131775;27;20035;-45
2022/12/07 11:19:40;;;;;;;7.97;1.80;;;6.10;99.90;;;;;;5130934;27;20036;-47
2022/12/07 11:22:31;;;;;;;7.88;1.60;;;6.10;99.90;;;;;;5131969;27;20073;-49
2022/12/07 11:25:21;;;;;;;8.68;1.38;;;6.00;99.90;;;;;;5131230;27;20042;-46
2022/12/07 11:27:54;;;;;;;10.43;1.50;;;6.00;99.90;;;;;;5129750;27;20118;-48
2022/12/07 11:30:26;;;;;;;14.00;1.95;;;6.00;99.90;;;;;;5131783;27;20066;-50
2022/12/07 11:33:41;;;;;;;9.60;1.45;;;6.00;99.90;;;;;;5130072;27;20645;-48
2022/12/07 11:36:37;;;;;;;5.38;1.17;;;5.90;99.90;;;;;;5086738;27;20100;-44
2022/12/07 11:39:26;;;;;;;5.82;1.30;;;5.90;99.90;;;;;;5111457;27;20053;-49
2022/12/07 11:42:21;;;;;;;7.13;1.88;;;6.00;99.90;;;;;;5126369;27;20035;-45
2022/12/07 11:45:10;;;;;;;8.15;1.33;;;5.90;99.90;;;;;;5114347;27;20050;-47
2022/12/07 11:47:51;;;;;;;7.50;1.10;;;5.90;99.90;;;;;;5126893;27;20055;-47
2022/12/07 11:50:36;;;;;;;7.05;0.95;;;5.90;99.90;;;;;;5126321;27;20099;-49
2022/12/07 11:53:07;;;;;;;6.43;1.05;;;6.00;99.90;;;;;;5123055;27;20478;-49
2022/12/07 11:55:42;;;;;;;8.35;1.15;;;5.80;99.90;;;;;;5093605;27;20048;-46
2022/12/07 11:58:32;;;;;;;6.95;1.30;;;6.00;99.90;;;;;;5125685;27;20035;-45
2022/12/07 12:01:41;;;;;;;8.43;1.63;;;6.00;99.90;;;;;;5120490;27;20486;-50
2022/12/07 12:04:10;;;;;;;7.63;1.10;;;5.90;99.90;;;;;;5102919;27;20493;-48
2022/12/07 12:06:43;;;;;;;7.35;1.00;;;6.20;99.90;;;;;;5123840;27;20187;-50
2022/12/07 12:09:16;;;;;;;7.45;0.90;;;5.90;99.90;;;;;;5115692;27;20039;-44
2022/12/07 12:12:14;;;;;;;3.85;1.33;;;5.90;99.90;;;;;;5117910;27;20491;-47
2022/12/07 12:14:57;;;;;;;8.20;1.00;;;6.00;99.90;;;;;;5117257;27;20031;-45
2022/12/07 12:17:53;;;;;;;6.03;1.02;;;6.20;99.90;;;;;;5126693;27;20037;-45
2022/12/07 12:20:41;;;;;;;7.65;1.35;;;6.00;99.90;;;;;;5120967;27;20027;-47
2022/12/07 12:23:06;;;;;;;8.82;1.35;;;6.10;99.90;;;;;;5119948;27;20541;-47
2022/12/07 12:25:49;;;;;;;9.25;1.20;;;6.40;99.90;;;;;;5119870;27;20027;-47
2022/12/07 12:28:29;;;;;;;7.05;1.27;;;6.40;99.90;;;;;;5120213;27;20475;-46
2022/12/07 12:31:27;;;;;;;8.52;1.13;;;6.80;99.90;;;;;;5108125;27;20039;-44
2022/12/07 12:34:01;;;;;;;7.90;1.10;;;6.90;99.90;;;;;;5063175;28;20044;-45
2022/12/07 12:36:39;;;;;;;;;;;7.20;99.90;;;;;;5121007;28;20039;-48
2022/12/07 12:39:08;;;;;;;9.73;1.15;;;6.80;99.90;;;;;;5120951;27;19998;-44
2022/12/07 12:42:05;;;;;;;9.77;1.60;;;6.70;99.90;;;;;;5126932;27;20104;-50
2022/12/07 12:44:32;;;;;;;6.20;1.05;;;6.70;99.90;;;;;;5126739;27;20035;-45
2022/12/07 12:47:04;;;;;;;6.45;0.95;;;6.70;99.90;;;;;;5108929;27;20111;-47
2022/12/07 12:49:36;;;;;;;7.72;1.55;;;6.70;99.90;;;;;;5127060;27;20042;-46
2022/12/07 12:52:07;;;;;;;4.80;1.20;;;7.00;99.90;;;;;;5127301;27;20435;-45
2022/12/07 12:54:36;;;;;;;8.20;1.05;;;6.70;99.90;;;;;;5108925;27;20121;-45
2022/12/07 12:57:16;;;;;;;7.00;1.10;;;6.70;99.90;;;;;;5126376;27;20077;-46
2022/12/07 12:59:51;;;;;;;7.28;1.25;;;6.50;99.90;;;;;;5109530;27;20031;-46
2022/12/07 13:02:28;;;;;;;7.97;1.23;;;6.40;99.90;;;;;;5127265;27;20462;-44
2022/12/07 13:05:01;;;;;;;8.38;1.23;;;6.40;99.90;;;;;;5127511;27;20035;-47
2022/12/07 13:07:48;;;;;;;7.47;1.50;;;6.30;99.90;;;;;;5125394;27;20064;-46
2022/12/07 13:10:32;;;;;;;9.05;1.10;;;6.20;99.90;;;;;;5124376;27;20043;-44
2022/12/07 13:13:19;;;;;;;9.43;1.15;;;6.20;99.90;;;;;;5126846;27;20087;-46
2022/12/07 13:15:46;;;;;;;5.68;0.93;;;6.10;99.90;;;;;;5127959;27;20070;-51
2022/12/07 13:18:32;;;;;;;6.95;1.20;;;6.10;99.90;;;;;;5127269;27;20050;-50
2022/12/07 13:21:07;;;;;;;8.63;1.10;;;6.00;99.90;;;;;;5129335;27;20027;-48